KLEX/LEX METAR and TAF weather

Enter ICAO airport designator
Station Type Date Time Source
KLEX METAR 2019/08/22 19:54 UTC NOAA

KLEX 221954Z 23005KT 10SM CLR 30/19 A2998 RMK AO2 SLP139 T03000194


Station Type Date Time Source
KLEX Decoded METAR 2019/08/22 19:54 UTC NOAA

Station name not available
Aug 22, 2019 - 03:54 PM EDT / 2019.08.22 1954 UTC
Wind: from the SW (230 degrees) at 6 MPH (5 KT):0
Visibility: 10 mile(s):0
Sky conditions: clear
Temperature: 86.0 F (30.0 C)
Dew Point: 66.9 F (19.4 C)
Relative Humidity: 53%
Pressure (altimeter): 29.98 in. Hg (1015 hPa)
ob: KLEX 221954Z 23005KT 10SM CLR 30/19 A2998 RMK AO2 SLP139 T03000194
cycle: 20

Station Type Date Time Source
KLEX TAF 2019/08/22 18:30 UTC NOAA

TAF KLEX 221727Z 2218/2318 23010KT P6SM SCT050
FM230000 18003KT P6SM BKN100
FM230600 17003KT P6SM -SHRA SCT050 OVC070
FM231200 04005KT P6SM BKN015 OVC025

Example: see airport list